Holly Ann — WDE9094 — position and weather

sailwx.info

Track history (hours):
 
Tides and Currents Weather Stations Pressure Air Temp Water Temp Dewpoint Dewpoint Depression Visibility Wind Speed Wind Dir Waves Ship Positions

Holly Ann

More information available from US FCC via Universal Licensing System and Coast Guard Vessel Documentation Center.

Last reported at 2014-Sep-18 17:33 UTC. Time now 2014-Sep-19 13:50 UTC.
Position N 47°21' W 122°33'.

; draft 4.5 m.

Type: Towing. MMSI: 367413350.

Date/timePositionNaut miles runAvg speedWind from/ knotsBaromVisibWave heightAir tempDewpointWater temp
2014-Sep-18 17:33N 47°21' W 122°33'12 8.1
2014-Sep-18 16:06N 47°32' W 122°28'5 8.6
2014-Sep-18 15:33N 47°36' W 122°24'3 3.2
2014-Sep-18 14:30N 47°33' W 122°21'0 0.0
2014-Sep-18 13:22N 47°33' W 122°21'0 0.0
2014-Sep-18 12:30N 47°33' W 122°21'0 0.0
2014-Sep-18 10:33N 47°33' W 122°21'0 0.0
2014-Sep-18 09:32N 47°33' W 122°21'0 0.0
2014-Sep-18 08:33N 47°33' W 122°21'0 0.0
2014-Sep-18 07:33N 47°33' W 122°21'0 0.0
2014-Sep-18 06:33N 47°33' W 122°21'0 0.0
2014-Sep-18 05:33N 47°33' W 122°21'0 0.0
2014-Sep-18 04:29N 47°33' W 122°21'1 1.5
2014-Sep-18 03:33N 47°35' W 122°21'6 4.8
2014-Sep-18 02:21N 47°31' W 122°29'9 7.7
2014-Sep-18 01:09N 47°22' W 122°32'5 7.9
2014-Sep-18 00:32N 47°18' W 122°33'13 0.5
2014-Sep-17 00:12N 47°31' W 122°29'6 7.9
2014-Sep-16 23:23N 47°37' W 122°28'6 7.7
2014-Sep-16 22:33N 47°43' W 122°28'7 7.3
2014-Sep-16 21:33N 47°50' W 122°25'5 8.4
2014-Sep-16 20:58N 47°55' W 122°21'3 7.6
2014-Sep-16 20:33N 47°57' W 122°18'6 4.9
2014-Sep-16 19:18N 48°01' W 122°11'3 3.9
2014-Sep-16 18:33N 47°59' W 122°15'0 0.0
2014-Sep-16 17:33N 47°59' W 122°15'0 0.0
2014-Sep-16 16:33N 47°59' W 122°15'0 0.0
2014-Sep-16 15:32N 47°59' W 122°15'0 0.0
2014-Sep-16 14:33N 47°59' W 122°15'0 0.0
2014-Sep-16 13:33N 47°59' W 122°15'0 0.0
2014-Sep-16 12:30N 47°59' W 122°15'0 0.0
2014-Sep-16 11:31N 47°59' W 122°15'0 0.0
2014-Sep-16 10:33N 47°59' W 122°15'0 0.0
2014-Sep-16 09:33N 47°59' W 122°15'0 0.0
2014-Sep-16 08:33N 47°59' W 122°15'0 0.0
2014-Sep-16 07:33N 47°59' W 122°15'0 0.0
2014-Sep-16 06:33N 47°59' W 122°15'3 2.6
2014-Sep-16 05:25N 48°01' W 122°11'3 3.3
2014-Sep-16 04:33N 47°59' W 122°14'3 2.8
2014-Sep-16 03:33N 47°58' W 122°18'7 6.6
2014-Sep-16 02:33N 47°52' W 122°23'2 6.2
2014-Sep-16 02:18N 47°50' W 122°23'5 6.2
2014-Sep-16 01:34N 47°46' W 122°25'0 7.2
2014-Sep-16 01:33N 47°46' W 122°25'7 7.0
2014-Sep-16 00:33N 47°39' W 122°27'1 7.4
2014-Sep-16 00:28N 47°39' W 122°27'7 7.2
2014-Sep-15 23:32N 47°32' W 122°28'0 0.0
2014-Sep-15 23:32N 47°32' W 122°28'  
2014-Sep-11 20:33N 47°15' W 122°34'4 4.2
2014-Sep-11 19:33N 47°19' W 122°30'3 0.1
2014-Sep-10 23:33N 47°19' W 122°27'8 8.4
2014-Sep-10 22:33N 47°27' W 122°23'9 8.7
2014-Sep-10 21:33N 47°36' W 122°24'3 2.5
2014-Sep-10 20:33N 47°34' W 122°21'0 0.0
2014-Sep-10 19:33N 47°34' W 122°21'0 0.0
2014-Sep-10 18:33N 47°34' W 122°21'0 0.0
2014-Sep-10 17:33N 47°34' W 122°21'0 0.0
2014-Sep-10 16:33N 47°34' W 122°21'0 0.0
2014-Sep-10 15:33N 47°34' W 122°21'0 0.0
2014-Sep-10 14:34N 47°34' W 122°21'0 0.0
2014-Sep-10 13:34N 47°34' W 122°21'1 0.8
2014-Sep-10 12:33N 47°33' W 122°21'0 0.0
2014-Sep-10 11:33N 47°33' W 122°21'0 0.0
2014-Sep-10 10:33N 47°33' W 122°21'0 0.0
2014-Sep-10 09:33N 47°33' W 122°21'0 0.0
2014-Sep-10 08:33N 47°33' W 122°21'2 1.8
2014-Sep-10 07:33N 47°35' W 122°22'5 5.4
2014-Sep-10 06:33N 47°32' W 122°28'9 8.8
2014-Sep-10 05:33N 47°23' W 122°32'1010.0
2014-Sep-10 04:33N 47°14' W 122°35'  
Track history (hours):
 
Tides and Currents Weather Stations Pressure Air Temp Water Temp Dewpoint Dewpoint Depression Visibility Wind Speed Wind Dir Waves Ship Positions

Holly Ann

More information available from US FCC via Universal Licensing System and Coast Guard Vessel Documentation Center.

Last reported at 2014-Sep-18 17:33 UTC. Time now 2014-Sep-19 13:50 UTC.
Position N 47°21' W 122°33'.

; draft 4.5 m.

Type: Towing. MMSI: 367413350.

Date/timePositionNaut miles runAvg speedWind from/ knotsBaromVisibWave heightAir tempDewpointWater temp
2014-Sep-18 17:33N 47°21' W 122°33'12 8.1
2014-Sep-18 16:06N 47°32' W 122°28'5 8.6
2014-Sep-18 15:33N 47°36' W 122°24'3 3.2
2014-Sep-18 14:30N 47°33' W 122°21'0 0.0
2014-Sep-18 13:22N 47°33' W 122°21'0 0.0
2014-Sep-18 12:30N 47°33' W 122°21'0 0.0
2014-Sep-18 10:33N 47°33' W 122°21'0 0.0
2014-Sep-18 09:32N 47°33' W 122°21'0 0.0
2014-Sep-18 08:33N 47°33' W 122°21'0 0.0
2014-Sep-18 07:33N 47°33' W 122°21'0 0.0
2014-Sep-18 06:33N 47°33' W 122°21'0 0.0
2014-Sep-18 05:33N 47°33' W 122°21'0 0.0
2014-Sep-18 04:29N 47°33' W 122°21'1 1.5
2014-Sep-18 03:33N 47°35' W 122°21'6 4.8
2014-Sep-18 02:21N 47°31' W 122°29'9 7.7
2014-Sep-18 01:09N 47°22' W 122°32'5 7.9
2014-Sep-18 00:32N 47°18' W 122°33'13 0.5
2014-Sep-17 00:12N 47°31' W 122°29'6 7.9
2014-Sep-16 23:23N 47°37' W 122°28'6 7.7
2014-Sep-16 22:33N 47°43' W 122°28'7 7.3
2014-Sep-16 21:33N 47°50' W 122°25'5 8.4
2014-Sep-16 20:58N 47°55' W 122°21'3 7.6
2014-Sep-16 20:33N 47°57' W 122°18'6 4.9
2014-Sep-16 19:18N 48°01' W 122°11'3 3.9
2014-Sep-16 18:33N 47°59' W 122°15'0 0.0
2014-Sep-16 17:33N 47°59' W 122°15'0 0.0
2014-Sep-16 16:33N 47°59' W 122°15'0 0.0
2014-Sep-16 15:32N 47°59' W 122°15'0 0.0
2014-Sep-16 14:33N 47°59' W 122°15'0 0.0
2014-Sep-16 13:33N 47°59' W 122°15'0 0.0
2014-Sep-16 12:30N 47°59' W 122°15'0 0.0
2014-Sep-16 11:31N 47°59' W 122°15'0 0.0
2014-Sep-16 10:33N 47°59' W 122°15'0 0.0
2014-Sep-16 09:33N 47°59' W 122°15'0 0.0
2014-Sep-16 08:33N 47°59' W 122°15'0 0.0
2014-Sep-16 07:33N 47°59' W 122°15'0 0.0
2014-Sep-16 06:33N 47°59' W 122°15'3 2.6
2014-Sep-16 05:25N 48°01' W 122°11'3 3.3
2014-Sep-16 04:33N 47°59' W 122°14'3 2.8
2014-Sep-16 03:33N 47°58' W 122°18'7 6.6
2014-Sep-16 02:33N 47°52' W 122°23'2 6.2
2014-Sep-16 02:18N 47°50' W 122°23'5 6.2
2014-Sep-16 01:34N 47°46' W 122°25'0 7.2
2014-Sep-16 01:33N 47°46' W 122°25'7 7.0
2014-Sep-16 00:33N 47°39' W 122°27'1 7.4
2014-Sep-16 00:28N 47°39' W 122°27'7 7.2
2014-Sep-15 23:32N 47°32' W 122°28'0 0.0
2014-Sep-15 23:32N 47°32' W 122°28'  
2014-Sep-11 20:33N 47°15' W 122°34'4 4.2
2014-Sep-11 19:33N 47°19' W 122°30'3 0.1
2014-Sep-10 23:33N 47°19' W 122°27'8 8.4
2014-Sep-10 22:33N 47°27' W 122°23'9 8.7
2014-Sep-10 21:33N 47°36' W 122°24'3 2.5
2014-Sep-10 20:33N 47°34' W 122°21'0 0.0
2014-Sep-10 19:33N 47°34' W 122°21'0 0.0
2014-Sep-10 18:33N 47°34' W 122°21'0 0.0
2014-Sep-10 17:33N 47°34' W 122°21'0 0.0
2014-Sep-10 16:33N 47°34' W 122°21'0 0.0
2014-Sep-10 15:33N 47°34' W 122°21'0 0.0
2014-Sep-10 14:34N 47°34' W 122°21'0 0.0
2014-Sep-10 13:34N 47°34' W 122°21'1 0.8
2014-Sep-10 12:33N 47°33' W 122°21'0 0.0
2014-Sep-10 11:33N 47°33' W 122°21'0 0.0
2014-Sep-10 10:33N 47°33' W 122°21'0 0.0
2014-Sep-10 09:33N 47°33' W 122°21'0 0.0
2014-Sep-10 08:33N 47°33' W 122°21'2 1.8
2014-Sep-10 07:33N 47°35' W 122°22'5 5.4
2014-Sep-10 06:33N 47°32' W 122°28'9 8.8
2014-Sep-10 05:33N 47°23' W 122°32'1010.0
2014-Sep-10 04:33N 47°14' W 122°35'  

Dump ship's entire track history